sensor_id;sensor_type;location;lat;lon;timestamp;pressure;altitude;pressure_sealevel;temperature
16956;BMP180;8594;52.052;8.354;2023-04-24T00:01:14;99141.00;;;14.50
16956;BMP180;8594;52.052;8.354;2023-04-24T00:03:42;99142.00;;;14.60
16956;BMP180;8594;52.052;8.354;2023-04-24T00:06:09;99147.00;;;14.90
16956;BMP180;8594;52.052;8.354;2023-04-24T00:08:36;99155.00;;;14.40
16956;BMP180;8594;52.052;8.354;2023-04-24T00:11:04;99144.00;;;14.40
16956;BMP180;8594;52.052;8.354;2023-04-24T00:13:31;99140.00;;;14.00
16956;BMP180;8594;52.052;8.354;2023-04-24T00:15:58;99138.00;;;14.20
16956;BMP180;8594;52.052;8.354;2023-04-24T00:18:24;99137.00;;;14.40
16956;BMP180;8594;52.052;8.354;2023-04-24T00:20:51;99132.00;;;14.50
16956;BMP180;8594;52.052;8.354;2023-04-24T00:23:18;99127.00;;;14.70
16956;BMP180;8594;52.052;8.354;2023-04-24T00:25:45;99127.00;;;14.70
16956;BMP180;8594;52.052;8.354;2023-04-24T00:28:13;99127.00;;;14.50
16956;BMP180;8594;52.052;8.354;2023-04-24T00:30:40;99124.00;;;14.50
16956;BMP180;8594;52.052;8.354;2023-04-24T00:33:08;99116.00;;;14.50
16956;BMP180;8594;52.052;8.354;2023-04-24T00:35:35;99115.00;;;14.80
16956;BMP180;8594;52.052;8.354;2023-04-24T00:38:01;99113.00;;;14.80
16956;BMP180;8594;52.052;8.354;2023-04-24T00:40:28;99121.00;;;14.90
16956;BMP180;8594;52.052;8.354;2023-04-24T00:42:56;99112.00;;;14.60
16956;BMP180;8594;52.052;8.354;2023-04-24T00:45:24;99108.00;;;14.80
16956;BMP180;8594;52.052;8.354;2023-04-24T00:47:52;99112.00;;;14.30
16956;BMP180;8594;52.052;8.354;2023-04-24T00:50:21;99114.00;;;14.70
16956;BMP180;8594;52.052;8.354;2023-04-24T00:52:48;99114.00;;;14.90
16956;BMP180;8594;52.052;8.354;2023-04-24T00:55:15;99091.00;;;14.70
16956;BMP180;8594;52.052;8.354;2023-04-24T00:57:42;99110.00;;;14.80
16956;BMP180;8594;52.052;8.354;2023-04-24T01:00:10;99097.00;;;14.60
16956;BMP180;8594;52.052;8.354;2023-04-24T01:02:40;99096.00;;;14.90
16956;BMP180;8594;52.052;8.354;2023-04-24T01:05:10;99090.00;;;14.50
16956;BMP180;8594;52.052;8.354;2023-04-24T01:07:38;99092.00;;;14.80
16956;BMP180;8594;52.052;8.354;2023-04-24T01:10:07;99094.00;;;14.90
16956;BMP180;8594;52.052;8.354;2023-04-24T01:12:35;99086.00;;;14.90
16956;BMP180;8594;52.052;8.354;2023-04-24T01:15:02;99090.00;;;14.60
16956;BMP180;8594;52.052;8.354;2023-04-24T01:17:30;99092.00;;;14.70
16956;BMP180;8594;52.052;8.354;2023-04-24T01:20:00;99093.00;;;14.90
16956;BMP180;8594;52.052;8.354;2023-04-24T01:22:33;99090.00;;;15.00
16956;BMP180;8594;52.052;8.354;2023-04-24T01:25:00;99093.00;;;14.70
16956;BMP180;8594;52.052;8.354;2023-04-24T01:27:27;99089.00;;;14.30
16956;BMP180;8594;52.052;8.354;2023-04-24T01:29:54;99092.00;;;14.50
16956;BMP180;8594;52.052;8.354;2023-04-24T01:32:21;99099.00;;;14.90
16956;BMP180;8594;52.052;8.354;2023-04-24T01:34:49;99084.00;;;15.00
16956;BMP180;8594;52.052;8.354;2023-04-24T01:37:16;99086.00;;;15.20
16956;BMP180;8594;52.052;8.354;2023-04-24T01:39:44;99090.00;;;14.90
16956;BMP180;8594;52.052;8.354;2023-04-24T01:42:12;99091.00;;;15.00
16956;BMP180;8594;52.052;8.354;2023-04-24T01:44:40;99082.00;;;14.80
16956;BMP180;8594;52.052;8.354;2023-04-24T01:47:07;99087.00;;;14.90
16956;BMP180;8594;52.052;8.354;2023-04-24T01:49:34;99093.00;;;15.10
16956;BMP180;8594;52.052;8.354;2023-04-24T01:52:01;99087.00;;;14.50
16956;BMP180;8594;52.052;8.354;2023-04-24T01:54:28;99087.00;;;14.70
16956;BMP180;8594;52.052;8.354;2023-04-24T01:56:56;99083.00;;;14.50
16956;BMP180;8594;52.052;8.354;2023-04-24T01:59:25;99077.00;;;14.40
16956;BMP180;8594;52.052;8.354;2023-04-24T02:01:53;99084.00;;;14.50
16956;BMP180;8594;52.052;8.354;2023-04-24T02:04:20;99089.00;;;14.10
16956;BMP180;8594;52.052;8.354;2023-04-24T02:06:47;99083.00;;;14.10
16956;BMP180;8594;52.052;8.354;2023-04-24T02:09:14;99084.00;;;14.10
16956;BMP180;8594;52.052;8.354;2023-04-24T02:11:40;99082.00;;;14.20
16956;BMP180;8594;52.052;8.354;2023-04-24T02:14:09;99082.00;;;14.30
16956;BMP180;8594;52.052;8.354;2023-04-24T02:16:35;99085.00;;;14.40
16956;BMP180;8594;52.052;8.354;2023-04-24T02:19:03;99086.00;;;14.20
16956;BMP180;8594;52.052;8.354;2023-04-24T02:21:30;99099.00;;;13.90
16956;BMP180;8594;52.052;8.354;2023-04-24T02:23:57;99097.00;;;13.90
16956;BMP180;8594;52.052;8.354;2023-04-24T02:26:24;99090.00;;;13.60
16956;BMP180;8594;52.052;8.354;2023-04-24T02:28:51;99090.00;;;13.90
16956;BMP180;8594;52.052;8.354;2023-04-24T02:31:19;99096.00;;;14.00
16956;BMP180;8594;52.052;8.354;2023-04-24T02:33:46;99088.00;;;13.80
16956;BMP180;8594;52.052;8.354;2023-04-24T02:36:13;99091.00;;;13.70
16956;BMP180;8594;52.052;8.354;2023-04-24T02:38:40;99094.00;;;13.60
16956;BMP180;8594;52.052;8.354;2023-04-24T02:41:07;99078.00;;;13.50
16956;BMP180;8594;52.052;8.354;2023-04-24T02:43:33;99084.00;;;13.60
16956;BMP180;8594;52.052;8.354;2023-04-24T02:46:00;99086.00;;;13.70
16956;BMP180;8594;52.052;8.354;2023-04-24T02:48:28;99099.00;;;13.70
16956;BMP180;8594;52.052;8.354;2023-04-24T02:50:55;99089.00;;;13.70
16956;BMP180;8594;52.052;8.354;2023-04-24T02:53:23;99093.00;;;13.80
16956;BMP180;8594;52.052;8.354;2023-04-24T02:55:49;99101.00;;;13.80
16956;BMP180;8594;52.052;8.354;2023-04-24T02:58:16;99102.00;;;13.40
16956;BMP180;8594;52.052;8.354;2023-04-24T03:00:45;99099.00;;;13.70
16956;BMP180;8594;52.052;8.354;2023-04-24T03:03:12;99093.00;;;13.60
16956;BMP180;8594;52.052;8.354;2023-04-24T03:05:40;99092.00;;;13.50
16956;BMP180;8594;52.052;8.354;2023-04-24T03:08:07;99106.00;;;13.70
16956;BMP180;8594;52.052;8.354;2023-04-24T03:10:34;99101.00;;;13.50
16956;BMP180;8594;52.052;8.354;2023-04-24T03:13:01;99102.00;;;13.30
16956;BMP180;8594;52.052;8.354;2023-04-24T03:15:27;99098.00;;;13.60
16956;BMP180;8594;52.052;8.354;2023-04-24T03:17:54;99093.00;;;13.60
16956;BMP180;8594;52.052;8.354;2023-04-24T03:20:21;99097.00;;;13.40
16956;BMP180;8594;52.052;8.354;2023-04-24T03:22:50;99097.00;;;13.40
16956;BMP180;8594;52.052;8.354;2023-04-24T03:25:16;99102.00;;;13.80
16956;BMP180;8594;52.052;8.354;2023-04-24T03:27:43;99098.00;;;13.70
16956;BMP180;8594;52.052;8.354;2023-04-24T03:30:10;99098.00;;;13.70
16956;BMP180;8594;52.052;8.354;2023-04-24T03:32:37;99106.00;;;13.50
16956;BMP180;8594;52.052;8.354;2023-04-24T03:35:05;99095.00;;;13.70
16956;BMP180;8594;52.052;8.354;2023-04-24T03:37:33;99093.00;;;13.50
16956;BMP180;8594;52.052;8.354;2023-04-24T03:40:01;99094.00;;;13.70
16956;BMP180;8594;52.052;8.354;2023-04-24T03:42:28;99091.00;;;13.40
16956;BMP180;8594;52.052;8.354;2023-04-24T03:44:55;99091.00;;;13.60
16956;BMP180;8594;52.052;8.354;2023-04-24T03:47:21;99092.00;;;13.40
16956;BMP180;8594;52.052;8.354;2023-04-24T03:49:48;99094.00;;;13.30
16956;BMP180;8594;52.052;8.354;2023-04-24T03:52:15;99087.00;;;13.80
16956;BMP180;8594;52.052;8.354;2023-04-24T03:54:42;99096.00;;;13.70
16956;BMP180;8594;52.052;8.354;2023-04-24T03:57:10;99089.00;;;13.70
16956;BMP180;8594;52.052;8.354;2023-04-24T03:59:37;99079.00;;;13.50
16956;BMP180;8594;52.052;8.354;2023-04-24T04:02:04;99078.00;;;13.70
16956;BMP180;8594;52.052;8.354;2023-04-24T04:04:30;99084.00;;;13.40
16956;BMP180;8594;52.052;8.354;2023-04-24T04:06:57;99101.00;;;13.30
16956;BMP180;8594;52.052;8.354;2023-04-24T04:09:26;99107.00;;;13.30
16956;BMP180;8594;52.052;8.354;2023-04-24T04:11:53;99105.00;;;13.30
16956;BMP180;8594;52.052;8.354;2023-04-24T04:14:22;99106.00;;;13.70
16956;BMP180;8594;52.052;8.354;2023-04-24T04:16:48;99104.00;;;13.60
16956;BMP180;8594;52.052;8.354;2023-04-24T04:19:15;99113.00;;;13.40
16956;BMP180;8594;52.052;8.354;2023-04-24T04:21:42;99117.00;;;13.10
16956;BMP180;8594;52.052;8.354;2023-04-24T04:24:11;99122.00;;;13.50
16956;BMP180;8594;52.052;8.354;2023-04-24T04:26:38;99127.00;;;13.30
16956;BMP180;8594;52.052;8.354;2023-04-24T04:29:06;99129.00;;;13.10
16956;BMP180;8594;52.052;8.354;2023-04-24T04:31:34;99127.00;;;12.90
16956;BMP180;8594;52.052;8.354;2023-04-24T04:34:02;99137.00;;;12.70
16956;BMP180;8594;52.052;8.354;2023-04-24T04:36:29;99147.00;;;12.70
16956;BMP180;8594;52.052;8.354;2023-04-24T04:38:56;99143.00;;;12.70
16956;BMP180;8594;52.052;8.354;2023-04-24T04:41:24;99139.00;;;12.10
16956;BMP180;8594;52.052;8.354;2023-04-24T04:43:51;99153.00;;;12.60
16956;BMP180;8594;52.052;8.354;2023-04-24T04:46:18;99145.00;;;12.00
16956;BMP180;8594;52.052;8.354;2023-04-24T04:48:46;99151.00;;;12.30
16956;BMP180;8594;52.052;8.354;2023-04-24T04:51:13;99150.00;;;12.00
16956;BMP180;8594;52.052;8.354;2023-04-24T04:53:40;99151.00;;;12.10
16956;BMP180;8594;52.052;8.354;2023-04-24T04:56:06;99147.00;;;12.30
16956;BMP180;8594;52.052;8.354;2023-04-24T04:58:34;99146.00;;;12.30
16956;BMP180;8594;52.052;8.354;2023-04-24T05:01:00;99141.00;;;12.10
16956;BMP180;8594;52.052;8.354;2023-04-24T05:03:28;99137.00;;;12.30
16956;BMP180;8594;52.052;8.354;2023-04-24T05:05:57;99139.00;;;12.40
16956;BMP180;8594;52.052;8.354;2023-04-24T05:08:24;99147.00;;;12.20
16956;BMP180;8594;52.052;8.354;2023-04-24T05:10:50;99133.00;;;12.40
16956;BMP180;8594;52.052;8.354;2023-04-24T05:13:17;99147.00;;;12.80
16956;BMP180;8594;52.052;8.354;2023-04-24T05:15:44;99138.00;;;12.70
16956;BMP180;8594;52.052;8.354;2023-04-24T05:18:11;99137.00;;;13.20
16956;BMP180;8594;52.052;8.354;2023-04-24T05:20:38;99139.00;;;12.70
16956;BMP180;8594;52.052;8.354;2023-04-24T05:23:06;99141.00;;;12.90
16956;BMP180;8594;52.052;8.354;2023-04-24T05:25:33;99144.00;;;12.90
16956;BMP180;8594;52.052;8.354;2023-04-24T05:28:00;99135.00;;;12.70
16956;BMP180;8594;52.052;8.354;2023-04-24T05:30:27;99133.00;;;13.10
16956;BMP180;8594;52.052;8.354;2023-04-24T05:32:54;99139.00;;;12.90
16956;BMP180;8594;52.052;8.354;2023-04-24T05:35:21;99141.00;;;12.80
16956;BMP180;8594;52.052;8.354;2023-04-24T05:37:48;99152.00;;;13.30
16956;BMP180;8594;52.052;8.354;2023-04-24T05:40:16;99147.00;;;13.10
16956;BMP180;8594;52.052;8.354;2023-04-24T05:42:43;99151.00;;;12.80
16956;BMP180;8594;52.052;8.354;2023-04-24T05:45:10;99150.00;;;13.00
16956;BMP180;8594;52.052;8.354;2023-04-24T05:47:42;99156.00;;;12.80
16956;BMP180;8594;52.052;8.354;2023-04-24T05:50:09;99149.00;;;13.00
16956;BMP180;8594;52.052;8.354;2023-04-24T05:52:36;99155.00;;;12.90
16956;BMP180;8594;52.052;8.354;2023-04-24T05:55:04;99152.00;;;13.10
16956;BMP180;8594;52.052;8.354;2023-04-24T05:57:32;99148.00;;;13.00
16956;BMP180;8594;52.052;8.354;2023-04-24T05:59:59;99147.00;;;13.00
16956;BMP180;8594;52.052;8.354;2023-04-24T06:02:26;99150.00;;;12.90
16956;BMP180;8594;52.052;8.354;2023-04-24T06:04:53;99146.00;;;12.70
16956;BMP180;8594;52.052;8.354;2023-04-24T06:07:20;99153.00;;;12.70
16956;BMP180;8594;52.052;8.354;2023-04-24T06:09:47;99151.00;;;12.80
16956;BMP180;8594;52.052;8.354;2023-04-24T06:12:14;99150.00;;;12.80
16956;BMP180;8594;52.052;8.354;2023-04-24T06:14:42;99159.00;;;13.40
16956;BMP180;8594;52.052;8.354;2023-04-24T06:17:09;99150.00;;;12.70
16956;BMP180;8594;52.052;8.354;2023-04-24T06:19:36;99155.00;;;13.10
16956;BMP180;8594;52.052;8.354;2023-04-24T06:22:03;99156.00;;;13.30
16956;BMP180;8594;52.052;8.354;2023-04-24T06:24:30;99152.00;;;13.20
16956;BMP180;8594;52.052;8.354;2023-04-24T06:26:57;99161.00;;;13.20
16956;BMP180;8594;52.052;8.354;2023-04-24T06:29:25;99156.00;;;13.10
16956;BMP180;8594;52.052;8.354;2023-04-24T06:31:53;99153.00;;;12.80
16956;BMP180;8594;52.052;8.354;2023-04-24T06:34:20;99155.00;;;13.10
16956;BMP180;8594;52.052;8.354;2023-04-24T06:36:47;99159.00;;;12.90
16956;BMP180;8594;52.052;8.354;2023-04-24T06:39:14;99153.00;;;12.90
16956;BMP180;8594;52.052;8.354;2023-04-24T06:41:41;99166.00;;;13.00
16956;BMP180;8594;52.052;8.354;2023-04-24T06:44:07;99161.00;;;13.00
16956;BMP180;8594;52.052;8.354;2023-04-24T06:46:34;99163.00;;;13.00
16956;BMP180;8594;52.052;8.354;2023-04-24T06:49:03;99162.00;;;13.00
16956;BMP180;8594;52.052;8.354;2023-04-24T06:51:29;99169.00;;;13.30
16956;BMP180;8594;52.052;8.354;2023-04-24T06:53:58;99173.00;;;13.30
16956;BMP180;8594;52.052;8.354;2023-04-24T06:56:26;99164.00;;;12.90
16956;BMP180;8594;52.052;8.354;2023-04-24T06:58:54;99167.00;;;12.60
16956;BMP180;8594;52.052;8.354;2023-04-24T07:01:21;99168.00;;;12.90
16956;BMP180;8594;52.052;8.354;2023-04-24T07:03:48;99165.00;;;13.00
16956;BMP180;8594;52.052;8.354;2023-04-24T07:06:16;99167.00;;;13.20
16956;BMP180;8594;52.052;8.354;2023-04-24T07:08:44;99173.00;;;13.00
16956;BMP180;8594;52.052;8.354;2023-04-24T07:11:10;99156.00;;;12.70
16956;BMP180;8594;52.052;8.354;2023-04-24T07:13:37;99167.00;;;12.70
16956;BMP180;8594;52.052;8.354;2023-04-24T07:16:07;99165.00;;;12.80
16956;BMP180;8594;52.052;8.354;2023-04-24T07:18:34;99177.00;;;13.20
16956;BMP180;8594;52.052;8.354;2023-04-24T07:21:02;99169.00;;;13.10
16956;BMP180;8594;52.052;8.354;2023-04-24T07:23:30;99178.00;;;13.30
16956;BMP180;8594;52.052;8.354;2023-04-24T07:25:57;99170.00;;;13.30
16956;BMP180;8594;52.052;8.354;2023-04-24T07:28:24;99161.00;;;13.20
16956;BMP180;8594;52.052;8.354;2023-04-24T07:30:51;99178.00;;;13.50
16956;BMP180;8594;52.052;8.354;2023-04-24T07:33:19;99171.00;;;13.10
16956;BMP180;8594;52.052;8.354;2023-04-24T07:35:46;99175.00;;;13.10
16956;BMP180;8594;52.052;8.354;2023-04-24T07:38:13;99170.00;;;12.80
16956;BMP180;8594;52.052;8.354;2023-04-24T07:40:41;99179.00;;;12.90
16956;BMP180;8594;52.052;8.354;2023-04-24T07:43:08;99182.00;;;13.30
16956;BMP180;8594;52.052;8.354;2023-04-24T07:45:35;99172.00;;;12.90
16956;BMP180;8594;52.052;8.354;2023-04-24T07:48:03;99188.00;;;13.20
16956;BMP180;8594;52.052;8.354;2023-04-24T07:50:29;99192.00;;;13.10
16956;BMP180;8594;52.052;8.354;2023-04-24T07:52:56;99190.00;;;13.20
16956;BMP180;8594;52.052;8.354;2023-04-24T07:55:23;99179.00;;;12.60
16956;BMP180;8594;52.052;8.354;2023-04-24T07:57:51;99196.00;;;12.90
16956;BMP180;8594;52.052;8.354;2023-04-24T08:00:19;99196.00;;;13.00
16956;BMP180;8594;52.052;8.354;2023-04-24T08:02:46;99193.00;;;12.80
16956;BMP180;8594;52.052;8.354;2023-04-24T08:05:13;99201.00;;;12.60
16956;BMP180;8594;52.052;8.354;2023-04-24T08:07:40;99198.00;;;12.60
16956;BMP180;8594;52.052;8.354;2023-04-24T08:10:09;99200.00;;;12.50
16956;BMP180;8594;52.052;8.354;2023-04-24T08:12:37;99199.00;;;12.60
16956;BMP180;8594;52.052;8.354;2023-04-24T08:15:06;99199.00;;;12.80
16956;BMP180;8594;52.052;8.354;2023-04-24T08:17:34;99201.00;;;12.70
16956;BMP180;8594;52.052;8.354;2023-04-24T08:20:01;99209.00;;;12.40
16956;BMP180;8594;52.052;8.354;2023-04-24T08:22:29;99205.00;;;12.50
16956;BMP180;8594;52.052;8.354;2023-04-24T08:24:56;99200.00;;;12.80
16956;BMP180;8594;52.052;8.354;2023-04-24T08:27:23;99207.00;;;12.70
16956;BMP180;8594;52.052;8.354;2023-04-24T08:29:50;99211.00;;;12.60
16956;BMP180;8594;52.052;8.354;2023-04-24T08:32:18;99214.00;;;12.80
16956;BMP180;8594;52.052;8.354;2023-04-24T08:34:45;99212.00;;;13.50
16956;BMP180;8594;52.052;8.354;2023-04-24T08:37:13;99217.00;;;13.30
16956;BMP180;8594;52.052;8.354;2023-04-24T08:39:40;99225.00;;;13.70
16956;BMP180;8594;52.052;8.354;2023-04-24T08:42:07;99204.00;;;13.50
16956;BMP180;8594;52.052;8.354;2023-04-24T08:44:36;99210.00;;;13.60
16956;BMP180;8594;52.052;8.354;2023-04-24T08:47:03;99214.00;;;13.50
16956;BMP180;8594;52.052;8.354;2023-04-24T08:49:33;99215.00;;;13.70
16956;BMP180;8594;52.052;8.354;2023-04-24T08:52:01;99219.00;;;13.50
16956;BMP180;8594;52.052;8.354;2023-04-24T08:54:28;99216.00;;;13.60
16956;BMP180;8594;52.052;8.354;2023-04-24T08:57:00;99228.00;;;13.60
16956;BMP180;8594;52.052;8.354;2023-04-24T08:59:28;99220.00;;;13.20
16956;BMP180;8594;52.052;8.354;2023-04-24T09:01:56;99225.00;;;12.80
16956;BMP180;8594;52.052;8.354;2023-04-24T09:04:24;99230.00;;;12.80
16956;BMP180;8594;52.052;8.354;2023-04-24T09:06:56;99234.00;;;12.90
16956;BMP180;8594;52.052;8.354;2023-04-24T09:09:24;99233.00;;;13.10
16956;BMP180;8594;52.052;8.354;2023-04-24T09:11:53;99230.00;;;13.40
16956;BMP180;8594;52.052;8.354;2023-04-24T09:14:21;99225.00;;;13.00
16956;BMP180;8594;52.052;8.354;2023-04-24T09:16:49;99230.00;;;13.30
16956;BMP180;8594;52.052;8.354;2023-04-24T09:19:16;99234.00;;;13.20
16956;BMP180;8594;52.052;8.354;2023-04-24T09:21:46;99233.00;;;13.60
16956;BMP180;8594;52.052;8.354;2023-04-24T09:24:18;99238.00;;;13.70
16956;BMP180;8594;52.052;8.354;2023-04-24T09:26:46;99237.00;;;13.40
16956;BMP180;8594;52.052;8.354;2023-04-24T09:29:15;99255.00;;;13.70
16956;BMP180;8594;52.052;8.354;2023-04-24T09:31:44;99240.00;;;13.30
16956;BMP180;8594;52.052;8.354;2023-04-24T09:34:11;99229.00;;;13.20
16956;BMP180;8594;52.052;8.354;2023-04-24T09:36:40;99230.00;;;13.60
16956;BMP180;8594;52.052;8.354;2023-04-24T09:39:10;99237.00;;;12.90
16956;BMP180;8594;52.052;8.354;2023-04-24T09:41:46;99224.00;;;12.80
16956;BMP180;8594;52.052;8.354;2023-04-24T09:44:15;99239.00;;;12.80
16956;BMP180;8594;52.052;8.354;2023-04-24T09:46:44;99241.00;;;12.90
16956;BMP180;8594;52.052;8.354;2023-04-24T09:49:15;99248.00;;;12.50
16956;BMP180;8594;52.052;8.354;2023-04-24T09:51:42;99252.00;;;12.90
16956;BMP180;8594;52.052;8.354;2023-04-24T09:54:15;99257.00;;;12.80
16956;BMP180;8594;52.052;8.354;2023-04-24T09:56:44;99249.00;;;13.10
16956;BMP180;8594;52.052;8.354;2023-04-24T09:59:12;99256.00;;;12.70
16956;BMP180;8594;52.052;8.354;2023-04-24T10:01:39;99250.00;;;12.80
16956;BMP180;8594;52.052;8.354;2023-04-24T10:04:16;99258.00;;;13.10
16956;BMP180;8594;52.052;8.354;2023-04-24T10:06:44;99244.00;;;13.10
16956;BMP180;8594;52.052;8.354;2023-04-24T10:09:12;99255.00;;;13.50
16956;BMP180;8594;52.052;8.354;2023-04-24T10:11:42;99252.00;;;13.10
16956;BMP180;8594;52.052;8.354;2023-04-24T10:14:14;99262.00;;;12.70
16956;BMP180;8594;52.052;8.354;2023-04-24T10:16:42;99258.00;;;13.20
16956;BMP180;8594;52.052;8.354;2023-04-24T10:19:10;99263.00;;;13.10
16956;BMP180;8594;52.052;8.354;2023-04-24T10:21:39;99276.00;;;13.10
16956;BMP180;8594;52.052;8.354;2023-04-24T10:24:08;99275.00;;;12.80
16956;BMP180;8594;52.052;8.354;2023-04-24T10:26:35;99278.00;;;12.70
16956;BMP180;8594;52.052;8.354;2023-04-24T10:29:05;99280.00;;;12.90
16956;BMP180;8594;52.052;8.354;2023-04-24T10:31:37;99287.00;;;12.90
16956;BMP180;8594;52.052;8.354;2023-04-24T10:34:05;99287.00;;;13.10
16956;BMP180;8594;52.052;8.354;2023-04-24T10:36:33;99291.00;;;13.00
16956;BMP180;8594;52.052;8.354;2023-04-24T10:39:03;99293.00;;;13.00
16956;BMP180;8594;52.052;8.354;2023-04-24T10:41:32;99304.00;;;12.90
16956;BMP180;8594;52.052;8.354;2023-04-24T10:44:07;99295.00;;;12.80
16956;BMP180;8594;52.052;8.354;2023-04-24T10:46:37;99310.00;;;12.70
16956;BMP180;8594;52.052;8.354;2023-04-24T10:49:06;99304.00;;;12.80
16956;BMP180;8594;52.052;8.354;2023-04-24T10:51:47;99316.00;;;12.50
16956;BMP180;8594;52.052;8.354;2023-04-24T10:54:25;99332.00;;;12.80
16956;BMP180;8594;52.052;8.354;2023-04-24T10:56:53;99339.00;;;12.50
16956;BMP180;8594;52.052;8.354;2023-04-24T10:59:40;99338.00;;;12.60
16956;BMP180;8594;52.052;8.354;2023-04-24T11:02:08;99340.00;;;12.10
16956;BMP180;8594;52.052;8.354;2023-04-24T11:04:35;99341.00;;;12.70
16956;BMP180;8594;52.052;8.354;2023-04-24T11:07:03;99339.00;;;12.80
16956;BMP180;8594;52.052;8.354;2023-04-24T11:09:31;99337.00;;;12.70
16956;BMP180;8594;52.052;8.354;2023-04-24T11:12:05;99342.00;;;13.00
16956;BMP180;8594;52.052;8.354;2023-04-24T11:15:00;99348.00;;;12.80
16956;BMP180;8594;52.052;8.354;2023-04-24T11:17:33;99356.00;;;12.80
16956;BMP180;8594;52.052;8.354;2023-04-24T11:20:03;99356.00;;;12.30
16956;BMP180;8594;52.052;8.354;2023-04-24T11:22:34;99367.00;;;12.30
16956;BMP180;8594;52.052;8.354;2023-04-24T11:25:02;99378.00;;;12.50
16956;BMP180;8594;52.052;8.354;2023-04-24T11:27:31;99374.00;;;12.60
16956;BMP180;8594;52.052;8.354;2023-04-24T11:30:01;99388.00;;;11.90
16956;BMP180;8594;52.052;8.354;2023-04-24T11:32:34;99390.00;;;12.30
16956;BMP180;8594;52.052;8.354;2023-04-24T11:35:05;99387.00;;;11.60
16956;BMP180;8594;52.052;8.354;2023-04-24T11:37:35;99387.00;;;12.10
16956;BMP180;8594;52.052;8.354;2023-04-24T11:40:04;99387.00;;;11.60
16956;BMP180;8594;52.052;8.354;2023-04-24T11:42:36;99393.00;;;12.20
16956;BMP180;8594;52.052;8.354;2023-04-24T11:45:08;99397.00;;;12.20
16956;BMP180;8594;52.052;8.354;2023-04-24T11:47:38;99413.00;;;11.90
16956;BMP180;8594;52.052;8.354;2023-04-24T11:50:09;99415.00;;;12.00
16956;BMP180;8594;52.052;8.354;2023-04-24T11:52:39;99424.00;;;12.50
16956;BMP180;8594;52.052;8.354;2023-04-24T11:55:09;99433.00;;;12.50
16956;BMP180;8594;52.052;8.354;2023-04-24T11:57:36;99432.00;;;12.00
16956;BMP180;8594;52.052;8.354;2023-04-24T12:00:04;99439.00;;;12.10
16956;BMP180;8594;52.052;8.354;2023-04-24T12:02:31;99451.00;;;12.10
16956;BMP180;8594;52.052;8.354;2023-04-24T12:04:59;99452.00;;;12.20
16956;BMP180;8594;52.052;8.354;2023-04-24T12:07:26;99460.00;;;12.10
16956;BMP180;8594;52.052;8.354;2023-04-24T12:09:58;99459.00;;;11.60
16956;BMP180;8594;52.052;8.354;2023-04-24T12:12:27;99461.00;;;11.50
16956;BMP180;8594;52.052;8.354;2023-04-24T12:14:56;99482.00;;;11.80
16956;BMP180;8594;52.052;8.354;2023-04-24T12:17:28;99479.00;;;11.50
16956;BMP180;8594;52.052;8.354;2023-04-24T12:20:02;99476.00;;;11.50
16956;BMP180;8594;52.052;8.354;2023-04-24T12:22:44;99477.00;;;11.80
16956;BMP180;8594;52.052;8.354;2023-04-24T12:25:13;99491.00;;;12.00
16956;BMP180;8594;52.052;8.354;2023-04-24T12:27:40;99489.00;;;11.70
16956;BMP180;8594;52.052;8.354;2023-04-24T12:30:13;99505.00;;;12.20
16956;BMP180;8594;52.052;8.354;2023-04-24T12:32:46;99496.00;;;12.40
16956;BMP180;8594;52.052;8.354;2023-04-24T12:35:20;99511.00;;;12.20
16956;BMP180;8594;52.052;8.354;2023-04-24T12:37:47;99512.00;;;12.10
16956;BMP180;8594;52.052;8.354;2023-04-24T12:40:15;99514.00;;;11.80
16956;BMP180;8594;52.052;8.354;2023-04-24T12:42:44;99513.00;;;11.90
16956;BMP180;8594;52.052;8.354;2023-04-24T12:45:12;99517.00;;;11.80
16956;BMP180;8594;52.052;8.354;2023-04-24T12:47:41;99518.00;;;12.10
16956;BMP180;8594;52.052;8.354;2023-04-24T12:50:10;99532.00;;;11.60
16956;BMP180;8594;52.052;8.354;2023-04-24T12:52:38;99539.00;;;12.20
16956;BMP180;8594;52.052;8.354;2023-04-24T12:55:07;99542.00;;;11.80
16956;BMP180;8594;52.052;8.354;2023-04-24T12:57:36;99539.00;;;12.00
16956;BMP180;8594;52.052;8.354;2023-04-24T13:00:05;99536.00;;;11.70
16956;BMP180;8594;52.052;8.354;2023-04-24T13:02:33;99547.00;;;11.70
16956;BMP180;8594;52.052;8.354;2023-04-24T13:05:01;99552.00;;;11.80
16956;BMP180;8594;52.052;8.354;2023-04-24T13:07:28;99556.00;;;11.60
16956;BMP180;8594;52.052;8.354;2023-04-24T13:09:56;99551.00;;;11.90
16956;BMP180;8594;52.052;8.354;2023-04-24T13:12:24;99555.00;;;12.10
16956;BMP180;8594;52.052;8.354;2023-04-24T13:14:51;99568.00;;;11.70
16956;BMP180;8594;52.052;8.354;2023-04-24T13:17:18;99563.00;;;11.80
16956;BMP180;8594;52.052;8.354;2023-04-24T13:19:45;99564.00;;;11.90
16956;BMP180;8594;52.052;8.354;2023-04-24T13:22:12;99573.00;;;11.80
16956;BMP180;8594;52.052;8.354;2023-04-24T13:42:35;99590.00;;;11.70
16956;BMP180;8594;52.052;8.354;2023-04-24T13:45:02;99588.00;;;11.90
16956;BMP180;8594;52.052;8.354;2023-04-24T13:47:30;99594.00;;;12.40
16956;BMP180;8594;52.052;8.354;2023-04-24T13:49:56;99592.00;;;12.00
16956;BMP180;8594;52.052;8.354;2023-04-24T13:52:23;99592.00;;;12.30
16956;BMP180;8594;52.052;8.354;2023-04-24T13:54:50;99598.00;;;12.80
16956;BMP180;8594;52.052;8.354;2023-04-24T13:57:17;99582.00;;;12.30
16956;BMP180;8594;52.052;8.354;2023-04-24T13:59:45;99588.00;;;12.40
16956;BMP180;8594;52.052;8.354;2023-04-24T14:02:12;99586.00;;;12.50
16956;BMP180;8594;52.052;8.354;2023-04-24T14:04:39;99581.00;;;12.60
16956;BMP180;8594;52.052;8.354;2023-04-24T14:07:06;99590.00;;;12.50
16956;BMP180;8594;52.052;8.354;2023-04-24T14:09:33;99585.00;;;12.80
16956;BMP180;8594;52.052;8.354;2023-04-24T14:12:00;99599.00;;;13.00
16956;BMP180;8594;52.052;8.354;2023-04-24T14:14:28;99592.00;;;13.20
16956;BMP180;8594;52.052;8.354;2023-04-24T14:16:57;99602.00;;;13.30
16956;BMP180;8594;52.052;8.354;2023-04-24T14:19:24;99594.00;;;12.60
16956;BMP180;8594;52.052;8.354;2023-04-24T14:21:51;99591.00;;;12.80
16956;BMP180;8594;52.052;8.354;2023-04-24T14:24:18;99600.00;;;12.60
16956;BMP180;8594;52.052;8.354;2023-04-24T14:26:45;99600.00;;;13.10
16956;BMP180;8594;52.052;8.354;2023-04-24T14:29:12;99596.00;;;12.60
16956;BMP180;8594;52.052;8.354;2023-04-24T14:31:39;99607.00;;;12.10
16956;BMP180;8594;52.052;8.354;2023-04-24T14:34:07;99601.00;;;12.60
16956;BMP180;8594;52.052;8.354;2023-04-24T14:36:34;99615.00;;;12.50
16956;BMP180;8594;52.052;8.354;2023-04-24T14:39:01;99618.00;;;12.30
16956;BMP180;8594;52.052;8.354;2023-04-24T14:41:32;99623.00;;;12.10
16956;BMP180;8594;52.052;8.354;2023-04-24T14:44:01;99619.00;;;12.50